createdAt,value
2018-08-23T00:02:32.233Z,5.22
2018-08-23T00:05:01.930Z,5.80
2018-08-23T00:07:30.395Z,4.62
2018-08-23T00:10:01.490Z,6.85
2018-08-23T00:12:40.211Z,6.83
2018-08-23T00:15:09.437Z,5.05
2018-08-23T00:17:41.987Z,6.05
2018-08-23T00:20:10.426Z,6.20
2018-08-23T00:22:38.880Z,5.08
2018-08-23T00:25:07.314Z,4.22
2018-08-23T00:27:35.774Z,5.10
2018-08-23T00:30:04.210Z,5.53
2018-08-23T00:32:32.665Z,6.90
2018-08-23T00:35:01.236Z,5.40
2018-08-23T00:37:29.699Z,4.42
2018-08-23T00:40:02.290Z,4.53
2018-08-23T00:42:30.642Z,6.92
2018-08-23T00:45:00.552Z,5.65
2018-08-23T00:47:33.283Z,5.22
2018-08-23T00:50:01.721Z,5.97
2018-08-23T00:52:38.370Z,5.22
2018-08-23T00:55:18.874Z,5.87
2018-08-23T00:57:48.341Z,6.22
2018-08-23T01:00:17.274Z,4.95
2018-08-23T01:02:50.968Z,5.08
2018-08-23T01:05:24.719Z,5.08
2018-08-23T01:07:53.240Z,5.35
2018-08-23T01:10:21.728Z,6.87
2018-08-23T01:12:55.840Z,4.47
2018-08-23T01:15:24.602Z,6.35
2018-08-23T01:18:07.582Z,5.20
2018-08-23T01:20:36.449Z,4.50
2018-08-23T01:23:05.265Z,8.60
2018-08-23T01:25:37.955Z,5.65
2018-08-23T01:28:08.499Z,4.67
2018-08-23T01:30:38.409Z,4.37
2018-08-23T01:33:10.095Z,4.35
2018-08-23T01:35:43.067Z,5.17
2018-08-23T01:38:12.222Z,5.00
2018-08-23T01:40:41.014Z,4.90
2018-08-23T01:43:09.763Z,4.87
2018-08-23T01:47:07.840Z,5.62
2018-08-23T01:54:33.843Z,5.20
2018-08-23T01:57:03.081Z,6.15
2018-08-23T01:59:31.788Z,5.83
2018-08-23T02:02:04.714Z,5.60
2018-08-23T02:04:33.447Z,6.22
2018-08-23T02:07:02.342Z,5.30
2018-08-23T02:09:31.025Z,5.30
2018-08-23T02:11:59.807Z,5.72
2018-08-23T02:14:39.959Z,5.80
2018-08-23T02:17:08.689Z,5.10
2018-08-23T02:19:45.841Z,7.83
2018-08-23T02:22:14.796Z,5.83
2018-08-23T02:24:47.435Z,6.80
2018-08-23T02:27:17.648Z,5.55
2018-08-23T02:29:48.561Z,6.62
2018-08-23T02:32:17.422Z,6.40
2018-08-23T02:34:47.260Z,6.17
2018-08-23T02:37:17.204Z,5.03
2018-08-23T02:39:46.800Z,6.35
2018-08-23T02:42:17.648Z,6.35
2018-08-23T02:44:51.422Z,6.20
2018-08-23T02:47:20.522Z,6.28
2018-08-23T02:49:49.217Z,6.05
2018-08-23T02:52:18.580Z,5.70
2018-08-23T02:54:47.377Z,6.70
2018-08-23T02:57:16.023Z,6.90
2018-08-23T02:59:44.690Z,7.83
2018-08-23T03:02:14.717Z,5.97
2018-08-23T03:04:43.476Z,6.37
2018-08-23T03:07:12.223Z,6.20
2018-08-23T03:09:45.968Z,6.22
2018-08-23T03:12:17.709Z,7.80
2018-08-23T03:14:47.527Z,6.58
2018-08-23T03:17:21.908Z,7.78
2018-08-23T03:20:07.471Z,6.30
2018-08-23T03:22:38.032Z,7.22
2018-08-23T03:25:09.297Z,5.70
2018-08-23T03:27:38.606Z,6.20
2018-08-23T03:30:11.008Z,7.15
2018-08-23T03:32:39.926Z,6.03
2018-08-23T03:35:09.357Z,6.42
2018-08-23T03:37:38.831Z,6.35
2018-08-23T03:40:08.837Z,5.65
2018-08-23T03:42:38.343Z,7.72
2018-08-23T03:45:15.819Z,6.97
2018-08-23T03:47:53.137Z,7.07
2018-08-23T03:53:10.490Z,6.42
2018-08-23T03:55:39.533Z,6.28
2018-08-23T03:58:08.244Z,7.13
2018-08-23T04:00:59.407Z,6.10
2018-08-23T04:03:28.073Z,7.85
2018-08-23T04:06:08.380Z,5.87
2018-08-23T04:08:37.077Z,6.70
2018-08-23T04:11:06.898Z,6.20
2018-08-23T04:13:36.368Z,6.33
2018-08-23T04:16:05.249Z,6.78
2018-08-23T04:18:33.926Z,6.35
2018-08-23T04:21:02.497Z,6.63
2018-08-23T04:23:31.241Z,7.25
2018-08-23T04:26:00.922Z,8.63
2018-08-23T04:28:29.896Z,8.30
2018-08-23T04:30:58.598Z,7.08
2018-08-23T04:33:27.870Z,7.67
2018-08-23T04:35:56.546Z,7.97
2018-08-23T04:38:25.158Z,6.63
2018-08-23T04:41:05.234Z,9.55
2018-08-23T04:43:35.078Z,6.83
2018-08-23T04:46:05.986Z,7.20
2018-08-23T04:48:34.654Z,7.03
2018-08-23T04:51:03.096Z,6.70
2018-08-23T04:53:31.643Z,6.92
2018-08-23T04:56:01.581Z,9.85
2018-08-23T04:58:30.200Z,8.48
2018-08-23T05:00:58.839Z,8.80
2018-08-23T05:03:28.537Z,10.15
2018-08-23T05:05:57.187Z,9.20
2018-08-23T05:08:25.844Z,8.13
2018-08-23T05:10:55.924Z,8.85
2018-08-23T05:13:25.649Z,8.40
2018-08-23T05:15:54.293Z,8.05
2018-08-23T05:18:22.894Z,10.32
2018-08-23T05:20:51.515Z,10.08
2018-08-23T05:23:20.788Z,8.73
2018-08-23T05:25:51.735Z,12.55
2018-08-23T05:28:20.885Z,8.83
2018-08-23T05:30:51.332Z,11.60
2018-08-23T05:33:21.854Z,9.55
2018-08-23T05:35:50.862Z,7.30
2018-08-23T05:38:20.299Z,7.45
2018-08-23T05:41:00.850Z,10.85
2018-08-23T05:43:30.007Z,9.08
2018-08-23T05:45:58.645Z,12.00
2018-08-23T05:48:30.059Z,7.62
2018-08-23T05:51:02.486Z,7.62
2018-08-23T05:53:31.020Z,7.92
2018-08-23T05:56:00.552Z,9.20
2018-08-23T05:58:31.291Z,12.07
2018-08-23T06:01:00.527Z,9.75
2018-08-23T06:03:29.111Z,8.58
2018-08-23T06:05:58.004Z,7.75
2018-08-23T06:08:26.691Z,7.50
2018-08-23T06:11:11.350Z,12.78
2018-08-23T06:13:40.802Z,7.87
2018-08-23T06:16:10.211Z,9.13
2018-08-23T06:18:38.880Z,10.30
2018-08-23T06:21:08.266Z,11.30
2018-08-23T06:24:08.166Z,7.03
2018-08-23T06:26:43.751Z,5.90
2018-08-23T06:29:29.557Z,11.85
2018-08-23T06:32:04.285Z,8.30
2018-08-23T06:34:51.022Z,10.43
2018-08-23T06:37:20.535Z,11.80
2018-08-23T06:39:48.964Z,7.42
2018-08-23T06:42:32.976Z,8.70
2018-08-23T06:45:01.598Z,6.67
2018-08-23T06:47:30.048Z,9.53
2018-08-23T06:49:58.556Z,8.98
2018-08-23T06:52:50.091Z,6.37
2018-08-23T06:55:30.412Z,7.42
2018-08-23T06:58:00.330Z,9.73
2018-08-23T07:00:28.923Z,8.63
2018-08-23T07:02:57.618Z,8.93
2018-08-23T07:05:29.265Z,10.60
2018-08-23T07:07:58.036Z,7.00
2018-08-23T07:10:30.658Z,9.55
2018-08-23T07:12:59.404Z,10.05
2018-08-23T07:15:27.893Z,8.53
2018-08-23T07:18:06.100Z,9.53
2018-08-23T07:20:36.556Z,10.38
2018-08-23T07:23:11.609Z,10.50
2018-08-23T07:25:52.496Z,7.20
2018-08-23T07:28:21.392Z,13.48
2018-08-23T07:30:49.975Z,11.97
2018-08-23T07:33:18.455Z,8.13
2018-08-23T07:36:55.557Z,7.15
2018-08-23T07:39:24.812Z,12.28
2018-08-23T07:41:53.375Z,10.93
2018-08-23T07:44:21.855Z,10.20
2018-08-23T07:46:50.488Z,9.35
2018-08-23T07:49:19.003Z,9.38
2018-08-23T07:51:47.450Z,11.12
2018-08-23T07:54:17.609Z,7.12
2018-08-23T07:56:46.465Z,12.25
2018-08-23T07:59:15.198Z,10.68
2018-08-23T08:01:43.710Z,12.78
2018-08-23T08:04:12.299Z,7.37
2018-08-23T08:06:49.677Z,15.03
2018-08-23T08:12:17.914Z,8.00
2018-08-23T08:14:46.474Z,9.73
2018-08-23T08:17:20.091Z,13.05
2018-08-23T08:19:57.778Z,10.90
2018-08-23T08:22:26.521Z,13.22
2018-08-23T08:25:00.260Z,15.63
2018-08-23T08:27:29.245Z,8.75
2018-08-23T08:29:57.743Z,9.08
2018-08-23T08:32:26.271Z,9.50
2018-08-23T08:34:57.278Z,7.90
2018-08-23T08:37:25.904Z,8.48
2018-08-23T08:39:54.384Z,10.50
2018-08-23T08:42:33.414Z,8.07
2018-08-23T08:45:10.857Z,9.93
2018-08-23T08:47:40.374Z,11.90
2018-08-23T08:50:08.870Z,7.42
2018-08-23T08:52:37.385Z,9.13
2018-08-23T08:55:07.737Z,7.95
2018-08-23T08:57:41.144Z,9.33
2018-08-23T09:00:09.877Z,8.70
2018-08-23T09:02:38.429Z,7.93
2018-08-23T09:05:07.003Z,8.40
2018-08-23T09:07:36.583Z,8.95
2018-08-23T09:10:05.942Z,9.15
2018-08-23T09:12:38.503Z,8.15
2018-08-23T09:15:07.015Z,8.28
2018-08-23T09:17:42.032Z,9.63
2018-08-23T09:20:11.723Z,14.50
2018-08-23T09:22:41.383Z,9.05
2018-08-23T09:25:15.985Z,8.37
2018-08-23T09:27:45.072Z,10.93
2018-08-23T09:30:18.687Z,9.08
2018-08-23T09:32:47.215Z,9.47
2018-08-23T09:35:15.851Z,11.03
2018-08-23T09:37:44.369Z,12.10
2018-08-23T09:40:12.793Z,6.58
2018-08-23T09:42:41.261Z,5.92
2018-08-23T09:45:17.687Z,8.85
2018-08-23T09:47:46.247Z,9.25
2018-08-23T09:50:14.757Z,7.12
2018-08-23T09:52:57.837Z,5.65
2018-08-23T09:55:30.698Z,10.80
2018-08-23T09:57:59.559Z,8.88
2018-08-23T10:00:33.335Z,5.92
2018-08-23T10:03:07.160Z,6.05
2018-08-23T10:05:47.089Z,12.18
2018-08-23T10:08:21.478Z,10.35
2018-08-23T10:10:55.290Z,6.10
2018-08-23T10:13:28.945Z,5.10
2018-08-23T10:16:02.607Z,7.77
2018-08-23T10:18:36.132Z,7.65
2018-08-23T10:21:04.845Z,6.55
2018-08-23T10:23:33.484Z,5.37
2018-08-23T10:26:33.366Z,5.58
2018-08-23T10:29:01.828Z,4.85
2018-08-23T10:31:30.330Z,6.70
2018-08-23T10:33:58.786Z,5.58
2018-08-23T10:36:27.221Z,7.35
2018-08-23T10:38:55.750Z,6.65
2018-08-23T10:41:24.396Z,5.53
2018-08-23T10:43:52.922Z,6.83
2018-08-23T10:46:21.606Z,7.87
2018-08-23T10:48:50.114Z,4.55
2018-08-23T10:51:18.661Z,6.45
2018-08-23T10:53:47.180Z,5.40
2018-08-23T10:56:15.783Z,4.97
2018-08-23T10:58:44.338Z,4.90
2018-08-23T11:01:12.855Z,6.33
2018-08-23T11:03:41.327Z,5.83
2018-08-23T11:06:09.834Z,5.55
2018-08-23T11:08:39.066Z,6.67
2018-08-23T11:11:12.875Z,5.17
2018-08-23T11:13:46.296Z,5.42
2018-08-23T11:16:20.118Z,5.80
2018-08-23T11:18:53.924Z,5.85
2018-08-23T11:21:22.386Z,5.35
2018-08-23T11:23:50.991Z,8.30
2018-08-23T11:26:22.332Z,7.08
2018-08-23T11:28:51.456Z,6.17
2018-08-23T11:31:25.571Z,5.62
2018-08-23T11:33:54.356Z,6.90
2018-08-23T11:36:23.693Z,4.83
2018-08-23T11:38:53.447Z,5.00
2018-08-23T11:41:22.893Z,5.57
2018-08-23T11:43:51.503Z,6.08
2018-08-23T11:46:21.089Z,5.12
2018-08-23T11:48:49.917Z,6.47
2018-08-23T11:51:19.080Z,8.00
2018-08-23T11:53:47.865Z,7.30
2018-08-23T11:56:16.446Z,5.90
2018-08-23T11:58:44.922Z,4.80
2018-08-23T12:01:14.867Z,6.15
2018-08-23T12:03:43.691Z,6.78
2018-08-23T12:06:13.183Z,6.17
2018-08-23T12:08:42.024Z,6.30
2018-08-23T12:11:10.516Z,8.03
2018-08-23T12:13:39.320Z,5.20
2018-08-23T12:16:08.519Z,5.67
2018-08-23T12:18:37.862Z,5.55
2018-08-23T12:21:06.759Z,4.50
2018-08-23T12:23:35.308Z,5.12
2018-08-23T12:26:03.940Z,7.55
2018-08-23T12:28:37.756Z,5.85
2018-08-23T12:31:06.143Z,5.60
2018-08-23T12:33:36.415Z,5.80
2018-08-23T12:36:08.140Z,5.47
2018-08-23T12:38:42.732Z,5.33
2018-08-23T12:41:16.462Z,4.75
2018-08-23T12:43:48.573Z,6.28
2018-08-23T12:46:18.650Z,6.85
2018-08-23T12:48:53.728Z,5.92
2018-08-23T12:51:22.622Z,5.40
2018-08-23T12:53:51.500Z,5.62
2018-08-23T12:56:22.095Z,6.78
2018-08-23T12:58:51.746Z,6.75
2018-08-23T13:01:21.602Z,5.97
2018-08-23T13:03:50.991Z,7.28
2018-08-23T13:06:19.953Z,4.50
2018-08-23T13:08:48.737Z,4.80
2018-08-23T13:11:17.337Z,6.22
2018-08-23T13:13:45.982Z,8.13
2018-08-23T13:16:14.546Z,8.00
2018-08-23T13:18:43.016Z,6.00
2018-08-23T13:21:11.620Z,7.47
2018-08-23T13:23:44.242Z,8.65
2018-08-23T13:26:12.797Z,7.78
2018-08-23T13:28:41.592Z,6.62
2018-08-23T13:31:10.021Z,6.60
2018-08-23T13:33:38.851Z,7.85
2018-08-23T13:36:07.312Z,6.57
2018-08-23T13:38:35.806Z,6.53
2018-08-23T13:41:04.340Z,6.78
2018-08-23T13:43:32.771Z,7.58
2018-08-23T13:46:01.260Z,8.38
2018-08-23T13:48:29.945Z,7.78
2018-08-23T13:50:58.327Z,4.85
2018-08-23T13:53:26.786Z,5.03
2018-08-23T13:55:55.265Z,6.70
2018-08-23T13:58:23.777Z,7.70
2018-08-23T14:00:52.191Z,6.92
2018-08-23T14:03:20.621Z,5.92
2018-08-23T14:05:49.247Z,8.93
2018-08-23T14:08:17.912Z,5.97
2018-08-23T14:10:46.384Z,4.37
2018-08-23T14:13:14.889Z,5.28
2018-08-23T14:15:48.515Z,6.42
2018-08-23T14:18:17.073Z,6.62
2018-08-23T14:20:45.671Z,6.50
2018-08-23T14:23:14.123Z,4.95
2018-08-23T14:25:42.681Z,4.70
2018-08-23T14:30:53.318Z,7.55
2018-08-23T14:33:21.827Z,7.03
2018-08-23T14:35:50.452Z,12.80
2018-08-23T14:38:19.043Z,19.10
2018-08-23T14:40:47.591Z,20.32
2018-08-23T14:43:16.094Z,18.20
2018-08-23T14:45:44.833Z,6.62
2018-08-23T14:48:20.886Z,5.85
2018-08-23T14:50:52.366Z,20.72
2018-08-23T14:53:27.786Z,9.93
2018-08-23T14:56:01.488Z,12.15
2018-08-23T14:58:30.613Z,11.35
2018-08-23T15:00:59.094Z,4.53
2018-08-23T15:03:27.719Z,6.85
2018-08-23T15:05:56.291Z,7.05
2018-08-23T15:08:24.738Z,6.35
2018-08-23T15:10:53.185Z,4.30
2018-08-23T15:13:21.641Z,7.45
2018-08-23T15:15:51.410Z,5.83
2018-08-23T15:18:21.091Z,6.05
2018-08-23T15:20:50.264Z,3.92
2018-08-23T15:23:18.774Z,4.20
2018-08-23T15:25:47.224Z,4.87
2018-08-23T15:28:15.768Z,4.50
2018-08-23T15:30:46.693Z,4.03
2018-08-23T15:33:15.278Z,5.05
2018-08-23T15:35:43.864Z,6.08
2018-08-23T15:38:12.412Z,5.55
2018-08-23T15:40:41.673Z,5.15
2018-08-23T15:43:10.203Z,4.75
2018-08-23T15:45:38.759Z,4.72
2018-08-23T15:48:22.947Z,5.30
2018-08-23T15:50:51.373Z,6.08
2018-08-23T15:53:20.401Z,5.28
2018-08-23T15:55:48.980Z,4.37
2018-08-23T15:58:18.008Z,5.45
2018-08-23T16:00:46.501Z,7.70
2018-08-23T16:03:14.961Z,5.22
2018-08-23T16:05:44.675Z,6.53
2018-08-23T16:08:13.230Z,5.87
2018-08-23T16:10:42.683Z,4.35
2018-08-23T16:13:11.458Z,5.20
2018-08-23T16:15:40.313Z,4.40
2018-08-23T16:18:14.475Z,4.35
2018-08-23T16:20:52.011Z,4.87
2018-08-23T16:23:21.083Z,3.70
2018-08-23T16:25:49.946Z,4.17
2018-08-23T16:28:18.554Z,7.12
2018-08-23T16:30:47.077Z,4.08
2018-08-23T16:33:15.458Z,4.25
2018-08-23T16:35:44.053Z,5.47
2018-08-23T16:38:12.577Z,4.87
2018-08-23T16:40:41.018Z,4.10
2018-08-23T16:43:09.516Z,4.37
2018-08-23T16:45:37.995Z,3.37
2018-08-23T16:48:06.540Z,3.92
2018-08-23T16:50:35.048Z,3.85
2018-08-23T16:53:03.591Z,5.00
2018-08-23T16:55:32.224Z,4.22
2018-08-23T16:58:00.750Z,5.22
2018-08-23T17:00:29.325Z,3.65
2018-08-23T17:02:57.748Z,3.62
2018-08-23T17:05:26.222Z,4.55
2018-08-23T17:07:54.917Z,3.95
2018-08-23T17:10:23.658Z,6.22
2018-08-23T17:12:52.367Z,6.05
2018-08-23T17:15:35.459Z,4.47
2018-08-23T17:18:04.141Z,4.87
2018-08-23T17:20:32.832Z,6.75
2018-08-23T17:23:01.394Z,5.62
2018-08-23T17:25:34.955Z,5.97
2018-08-23T17:28:03.548Z,4.33
2018-08-23T17:30:32.339Z,4.33
2018-08-23T17:33:00.932Z,4.30
2018-08-23T17:35:30.025Z,4.20
2018-08-23T17:37:58.492Z,4.08
2018-08-23T17:40:26.998Z,5.00
2018-08-23T17:42:55.398Z,5.92
2018-08-23T17:45:24.347Z,6.12
2018-08-23T17:47:52.875Z,4.65
2018-08-23T17:50:21.580Z,4.92
2018-08-23T17:52:50.107Z,4.15
2018-08-23T17:55:18.695Z,6.30
2018-08-23T17:57:47.825Z,4.75
2018-08-23T18:00:16.259Z,4.45
2018-08-23T18:02:44.937Z,4.10
2018-08-23T18:05:13.468Z,4.35
2018-08-23T18:07:41.963Z,4.95
2018-08-23T18:10:10.578Z,5.42
2018-08-23T18:12:39.286Z,7.03
2018-08-23T18:15:09.763Z,5.53
2018-08-23T18:17:39.056Z,4.75
2018-08-23T18:20:08.699Z,4.75
2018-08-23T18:22:37.349Z,5.42
2018-08-23T18:25:05.942Z,6.03
2018-08-23T18:27:34.748Z,4.30
2018-08-23T18:30:03.165Z,5.08
2018-08-23T18:32:31.801Z,8.40
2018-08-23T18:35:00.449Z,8.05
2018-08-23T18:37:29.060Z,5.05
2018-08-23T18:39:57.684Z,5.50
2018-08-23T18:42:26.219Z,5.00
2018-08-23T18:45:00.041Z,6.30
2018-08-23T18:47:28.786Z,5.58
2018-08-23T18:49:57.260Z,6.03
2018-08-23T18:52:25.740Z,7.12
2018-08-23T18:54:59.308Z,5.45
2018-08-23T18:57:27.856Z,6.00
2018-08-23T18:59:56.587Z,6.25
2018-08-23T19:02:25.257Z,6.15
2018-08-23T19:04:59.674Z,6.03
2018-08-23T19:07:33.363Z,5.58
2018-08-23T19:10:02.056Z,6.50
2018-08-23T19:12:31.305Z,6.62
2018-08-23T19:15:05.026Z,6.22
2018-08-23T19:17:42.837Z,5.58
2018-08-23T19:20:12.546Z,5.70
2018-08-23T19:22:41.128Z,6.62
2018-08-23T19:25:19.006Z,6.72
2018-08-23T19:27:47.872Z,7.78
2018-08-23T19:30:16.390Z,7.40
2018-08-23T19:32:44.818Z,8.20
2018-08-23T19:35:13.232Z,6.17
2018-08-23T19:37:42.003Z,7.15
2018-08-23T19:40:11.200Z,6.97
2018-08-23T19:42:40.182Z,5.22
2018-08-23T19:45:13.670Z,5.12
2018-08-23T19:47:43.814Z,5.75
2018-08-23T19:50:13.066Z,5.83
2018-08-23T19:52:41.494Z,5.70
2018-08-23T19:55:11.318Z,8.10
2018-08-23T19:57:40.083Z,5.50
2018-08-23T20:00:09.716Z,5.45
2018-08-23T20:02:38.287Z,5.33
2018-08-23T20:05:06.779Z,5.58
2018-08-23T20:07:35.299Z,5.50
2018-08-23T20:10:03.854Z,5.50
2018-08-23T20:12:32.456Z,6.70
2018-08-23T20:15:24.336Z,6.10
2018-08-23T20:17:53.896Z,5.80
2018-08-23T20:20:22.371Z,5.72
2018-08-23T20:22:50.838Z,6.35
2018-08-23T20:25:20.421Z,6.55
2018-08-23T20:27:49.080Z,5.92
2018-08-23T20:30:17.583Z,6.28
2018-08-23T20:32:46.063Z,6.22
2018-08-23T20:35:14.552Z,6.15
2018-08-23T20:37:43.206Z,5.40
2018-08-23T20:40:11.760Z,5.60
2018-08-23T20:42:40.224Z,6.30
2018-08-23T20:45:08.788Z,6.55
2018-08-23T20:47:37.233Z,6.00
2018-08-23T20:50:05.731Z,6.20
2018-08-23T20:52:34.218Z,6.67
2018-08-23T20:55:02.861Z,7.35
2018-08-23T20:57:31.286Z,5.70
2018-08-23T20:59:59.739Z,6.22
2018-08-23T21:02:28.180Z,6.22
2018-08-23T21:04:56.732Z,7.17
2018-08-23T21:07:25.162Z,6.30
2018-08-23T21:09:53.772Z,7.47
2018-08-23T21:12:22.455Z,6.30
2018-08-23T21:14:50.868Z,9.20
2018-08-23T21:17:19.425Z,9.95
2018-08-23T21:19:48.016Z,6.92
2018-08-23T21:22:16.479Z,6.60
2018-08-23T21:24:45.338Z,6.65
2018-08-23T21:27:13.776Z,7.40
2018-08-23T21:29:42.228Z,7.35
2018-08-23T21:32:11.012Z,7.40
2018-08-23T21:34:39.392Z,7.72
2018-08-23T21:37:07.854Z,7.70
2018-08-23T21:39:36.392Z,7.40
2018-08-23T21:42:04.862Z,6.85
2018-08-23T21:44:33.241Z,6.72
2018-08-23T21:47:07.317Z,7.15
2018-08-23T21:49:35.812Z,6.62
2018-08-23T21:52:04.236Z,10.00
2018-08-23T21:54:32.696Z,7.30
2018-08-23T21:57:01.235Z,9.28
2018-08-23T21:59:29.914Z,7.80
2018-08-23T22:02:33.206Z,7.10
2018-08-23T22:05:01.666Z,6.37
2018-08-23T22:07:30.096Z,7.28
2018-08-23T22:09:58.586Z,6.87
2018-08-23T22:12:27.037Z,6.47
2018-08-23T22:14:56.028Z,8.15
2018-08-23T22:17:25.174Z,7.55
2018-08-23T22:19:54.661Z,7.78
2018-08-23T22:22:23.078Z,9.68
2018-08-23T22:24:51.606Z,9.00
2018-08-23T22:27:20.238Z,7.53
2018-08-23T22:29:48.728Z,7.45
2018-08-23T22:32:17.263Z,7.05
2018-08-23T22:34:45.732Z,9.25
2018-08-23T22:37:15.386Z,8.13
2018-08-23T22:39:44.231Z,8.03
2018-08-23T22:42:12.829Z,7.87
2018-08-23T22:44:41.506Z,7.83
2018-08-23T22:47:10.044Z,8.23
2018-08-23T22:49:38.518Z,10.53
2018-08-23T22:52:06.881Z,10.20
2018-08-23T22:54:35.299Z,7.35
2018-08-23T22:57:03.758Z,10.15
2018-08-23T22:59:32.280Z,7.53
2018-08-23T23:02:00.867Z,8.63
2018-08-23T23:04:29.699Z,7.62
2018-08-23T23:06:59.117Z,8.53
2018-08-23T23:09:27.622Z,8.90
2018-08-23T23:11:56.466Z,7.22
2018-08-23T23:14:24.937Z,9.30
2018-08-23T23:16:55.094Z,9.65
2018-08-23T23:19:24.181Z,7.45
2018-08-23T23:21:52.566Z,8.00
2018-08-23T23:24:26.208Z,7.35
2018-08-23T23:26:55.645Z,8.33
2018-08-23T23:29:24.491Z,7.95
2018-08-23T23:31:52.905Z,7.90
2018-08-23T23:34:21.296Z,8.18
2018-08-23T23:36:49.723Z,7.60
2018-08-23T23:39:18.472Z,7.95
2018-08-23T23:41:46.896Z,9.45
2018-08-23T23:44:15.426Z,8.18
2018-08-23T23:46:53.245Z,8.30
2018-08-23T23:49:21.795Z,7.62
2018-08-23T23:51:50.685Z,7.72
2018-08-23T23:54:19.105Z,8.75
2018-08-23T23:56:47.618Z,8.73
2018-08-23T23:59:16.024Z,8.13
